Time,TemperatureF,DewpointF,PressureIn,WindDirection,WindDirectionDegrees,WindSpeedMPH,WindSpeedGustMPH,Humidity,HourlyPrecipIn,Conditions,Clouds,dailyrainin,SoftwareType,DateUTC
2013-04-14 00:02:00,41.0,38.0,29.95,South,177,0.0,-999.0,88,-99.99,,,-99.99,,2013-04-14 07:02:00,
2013-04-14 00:12:00,41.0,38.0,29.95,South,177,0.0,-999.0,88,-99.99,,,-99.99,,2013-04-14 07:12:00,
2013-04-14 00:22:00,41.0,38.0,29.95,South,177,0.0,-999.0,89,-99.99,,,-99.99,,2013-04-14 07:22:00,
2013-04-14 00:32:00,41.0,38.0,29.95,South,177,1.0,-999.0,90,-99.99,,,-99.99,,2013-04-14 07:32:00,
2013-04-14 00:42:00,41.0,38.0,29.95,South,177,1.0,-999.0,90,-99.99,,,-99.99,,2013-04-14 07:42:00,
2013-04-14 00:52:00,41.0,38.0,29.96,South,177,0.0,-999.0,90,-99.99,,,-99.99,,2013-04-14 07:52:00,
2013-04-14 01:02:00,41.0,39.0,29.96,South,177,0.0,-999.0,91,-99.99,,,-99.99,,2013-04-14 08:02:00,
2013-04-14 01:12:00,41.0,39.0,29.96,South,177,0.0,-999.0,91,-99.99,,,-99.99,,2013-04-14 08:12:00,
2013-04-14 01:22:00,41.0,39.0,29.96,South,177,1.0,-999.0,91,-99.99,,,-99.99,,2013-04-14 08:22:00,
2013-04-14 01:32:00,41.0,39.0,29.96,South,180,0.0,-999.0,91,-99.99,,,-99.99,,2013-04-14 08:32:00,
2013-04-14 01:42:00,41.0,39.0,29.96,South,180,0.0,-999.0,91,-99.99,,,-99.99,,2013-04-14 08:42:00,
2013-04-14 01:52:00,40.0,38.0,29.96,South,188,2.0,-999.0,91,-99.99,,,-99.99,,2013-04-14 08:52:00,
2013-04-14 02:02:00,40.0,38.0,29.96,South,188,0.0,-999.0,91,-99.99,,,-99.99,,2013-04-14 09:02:00,
2013-04-14 02:12:00,40.0,38.0,29.96,South,188,0.0,-999.0,91,-99.99,,,-99.99,,2013-04-14 09:12:00,
2013-04-14 02:22:00,40.0,38.0,29.96,South,190,1.0,-999.0,91,-99.99,,,-99.99,,2013-04-14 09:22:00,
2013-04-14 02:32:00,40.0,38.0,29.97,SW,223,1.0,-999.0,91,-99.99,,,-99.99,,2013-04-14 09:32:00,
2013-04-14 02:42:00,40.0,38.0,29.97,SW,223,1.0,-999.0,91,-99.99,,,-99.99,,2013-04-14 09:42:00,
2013-04-14 02:53:00,40.0,38.0,29.96,SW,223,1.0,-999.0,91,-99.99,,,-99.99,,2013-04-14 09:53:00,
2013-04-14 03:02:00,40.0,38.0,29.96,SW,224,2.0,-999.0,92,-99.99,,,-99.99,,2013-04-14 10:02:00,
2013-04-14 03:12:00,40.0,38.0,29.96,SW,224,2.0,-999.0,92,-99.99,,,-99.99,,2013-04-14 10:12:00,
2013-04-14 03:22:00,39.0,37.0,29.96,SW,224,1.0,-999.0,92,-99.99,,,-99.99,,2013-04-14 10:22:00,
2013-04-14 03:32:00,39.0,37.0,29.96,SW,224,1.0,-999.0,92,-99.99,,,-99.99,,2013-04-14 10:32:00,
2013-04-14 03:42:00,39.0,37.0,29.96,SW,224,1.0,-999.0,92,-99.99,,,-99.99,,2013-04-14 10:42:00,
2013-04-14 03:52:00,39.0,37.0,29.96,SW,224,0.0,-999.0,92,-99.99,,,-99.99,,2013-04-14 10:52:00,
2013-04-14 04:02:00,38.0,36.0,29.96,SW,224,1.0,-999.0,93,-99.99,,,-99.99,,2013-04-14 11:02:00,
2013-04-14 04:12:00,38.0,36.0,29.96,SW,224,1.0,-999.0,93,-99.99,,,-99.99,,2013-04-14 11:12:00,
2013-04-14 04:22:00,37.0,35.0,29.96,SW,224,0.0,-999.0,93,-99.99,,,-99.99,,2013-04-14 11:22:00,
2013-04-14 04:32:00,37.0,35.0,29.96,SW,224,0.0,-999.0,94,-99.99,,,-99.99,,2013-04-14 11:32:00,
2013-04-14 04:42:00,37.0,35.0,29.96,SW,224,0.0,-999.0,94,-99.99,,,-99.99,,2013-04-14 11:42:00,
2013-04-14 04:52:00,37.0,35.0,29.96,SW,224,0.0,-999.0,94,-99.99,,,-99.99,,2013-04-14 11:52:00,
2013-04-14 05:02:00,35.0,33.0,29.96,SW,224,1.0,-999.0,94,-99.99,,,-99.99,,2013-04-14 12:02:00,
2013-04-14 05:12:00,35.0,33.0,29.96,SW,224,1.0,-999.0,94,-99.99,,,-99.99,,2013-04-14 12:12:00,
2013-04-14 05:21:00,35.0,34.0,29.96,SW,224,2.0,-999.0,95,-99.99,,,-99.99,,2013-04-14 12:21:00,
2013-04-14 05:32:00,36.0,35.0,29.96,SW,224,3.0,-999.0,96,-99.99,,,-99.99,,2013-04-14 12:32:00,
2013-04-14 05:42:00,36.0,35.0,29.96,SW,224,3.0,-999.0,96,-99.99,,,-99.99,,2013-04-14 12:42:00,
2013-04-14 05:51:00,36.0,35.0,29.96,SW,224,0.0,-999.0,96,-99.99,,,-99.99,,2013-04-14 12:51:00,
2013-04-14 06:02:00,36.0,35.0,29.96,SW,224,2.0,-999.0,96,-99.99,,,-99.99,,2013-04-14 13:02:00,
2013-04-14 06:11:00,36.0,35.0,29.96,SW,224,2.0,-999.0,96,-99.99,,,-99.99,,2013-04-14 13:11:00,
2013-04-14 06:22:00,36.0,35.0,29.96,SW,224,2.0,-999.0,96,-99.99,,,-99.99,,2013-04-14 13:22:00,
2013-04-14 06:32:00,36.0,35.0,29.96,SW,225,2.0,-999.0,96,-99.99,,,-99.99,,2013-04-14 13:32:00,
2013-04-14 06:42:00,36.0,35.0,29.96,SW,225,2.0,-999.0,96,-99.99,,,-99.99,,2013-04-14 13:42:00,
2013-04-14 06:52:00,36.0,35.0,29.96,SW,228,4.0,-999.0,96,-99.99,,,-99.99,,2013-04-14 13:52:00,
2013-04-14 07:02:00,36.0,35.0,29.96,SW,223,6.0,-999.0,97,-99.99,,,-99.99,,2013-04-14 14:02:00,
2013-04-14 07:11:00,36.0,35.0,29.96,SW,223,6.0,-999.0,97,-99.99,,,-99.99,,2013-04-14 14:11:00,
2013-04-14 07:22:00,36.0,35.0,29.96,WSW,244,5.0,-999.0,97,-99.99,,,-99.99,,2013-04-14 14:22:00,
2013-04-14 07:32:00,36.0,35.0,29.96,WSW,243,2.0,-999.0,97,-99.99,,,-99.99,,2013-04-14 14:32:00,
2013-04-14 07:41:00,36.0,35.0,29.96,WSW,243,2.0,-999.0,97,-99.99,,,-99.99,,2013-04-14 14:41:00,
2013-04-14 07:52:00,36.0,35.0,29.96,SW,230,3.0,-999.0,97,-99.99,,,-99.99,,2013-04-14 14:52:00,
2013-04-14 08:02:00,36.0,35.0,29.96,SW,230,1.0,-999.0,97,-99.99,,,-99.99,,2013-04-14 15:02:00,
2013-04-14 08:12:00,36.0,35.0,29.96,SW,230,1.0,-999.0,97,-99.99,,,-99.99,,2013-04-14 15:12:00,
2013-04-14 08:22:00,37.0,36.0,29.96,SW,230,0.0,-999.0,97,-99.99,,,-99.99,,2013-04-14 15:22:00,
2013-04-14 08:33:00,38.0,37.0,29.96,SW,230,0.0,-999.0,97,-99.99,,,-99.99,,2013-04-14 15:33:00,
2013-04-14 08:42:00,38.0,37.0,29.96,SW,230,0.0,-999.0,97,-99.99,,,-99.99,,2013-04-14 15:42:00,
2013-04-14 08:52:00,39.0,38.0,29.96,SSW,208,1.0,-999.0,95,-99.99,,,-99.99,,2013-04-14 15:52:00,
2013-04-14 09:03:00,39.0,38.0,29.96,South,186,1.0,-999.0,95,-99.99,,,-99.99,,2013-04-14 16:03:00,
2013-04-14 09:13:00,39.0,38.0,29.96,South,186,1.0,-999.0,95,-99.99,,,-99.99,,2013-04-14 16:13:00,
2013-04-14 09:22:00,39.0,38.0,29.96,South,185,1.0,-999.0,95,-99.99,,,-99.99,,2013-04-14 16:22:00,
2013-04-14 09:32:00,40.0,38.0,29.96,SW,231,2.0,-999.0,93,-99.99,,,-99.99,,2013-04-14 16:32:00,
2013-04-14 09:42:00,40.0,38.0,29.96,SW,231,2.0,-999.0,93,-99.99,,,-99.99,,2013-04-14 16:42:00,
2013-04-14 09:52:00,40.0,38.0,29.96,SW,228,3.0,-999.0,93,-99.99,,,-99.99,,2013-04-14 16:52:00,
2013-04-14 10:02:00,41.0,39.0,29.95,SW,234,2.0,-999.0,91,-99.99,,,-99.99,,2013-04-14 17:02:00,
2013-04-14 10:12:00,41.0,39.0,29.95,SW,234,2.0,-999.0,91,-99.99,,,-99.99,,2013-04-14 17:12:00,
2013-04-14 10:22:00,42.0,39.0,29.95,SW,234,0.0,-999.0,88,-99.99,,,-99.99,,2013-04-14 17:22:00,
2013-04-14 10:32:00,44.0,40.0,29.95,ENE,63,2.0,-999.0,87,-99.99,,,-99.99,,2013-04-14 17:32:00,
2013-04-14 10:42:00,44.0,40.0,29.95,ENE,63,2.0,-999.0,87,-99.99,,,-99.99,,2013-04-14 17:42:00,
2013-04-14 10:52:00,45.0,41.0,29.95,ESE,122,1.0,-999.0,85,-99.99,,,-99.99,,2013-04-14 17:52:00,
2013-04-14 11:02:00,45.0,40.0,29.95,ESE,121,1.0,-999.0,82,-99.99,,,-99.99,,2013-04-14 18:02:00,
2013-04-14 11:12:00,45.0,40.0,29.95,ESE,121,1.0,-999.0,82,-99.99,,,-99.99,,2013-04-14 18:12:00,
2013-04-14 11:21:00,47.0,41.0,29.95,SSE,161,2.0,-999.0,78,-99.99,,,-99.99,,2013-04-14 18:21:00,
2013-04-14 11:32:00,48.0,41.0,29.95,SSW,197,2.0,-999.0,77,-99.99,,,-99.99,,2013-04-14 18:32:00,
2013-04-14 11:42:00,48.0,41.0,29.95,SSW,197,2.0,-999.0,77,-99.99,,,-99.99,,2013-04-14 18:42:00,
2013-04-14 11:52:00,47.0,42.0,29.95,South,172,0.0,-999.0,82,-99.99,,,-99.99,,2013-04-14 18:52:00,
2013-04-14 12:02:00,46.0,38.0,29.94,SSW,194,0.0,-999.0,73,-99.99,,,-99.99,,2013-04-14 19:02:00,
2013-04-14 12:12:00,46.0,38.0,29.94,SSW,194,0.0,-999.0,73,-99.99,,,-99.99,,2013-04-14 19:12:00,
2013-04-14 12:22:00,48.0,41.0,29.94,South,175,3.0,-999.0,77,-99.99,,,-99.99,,2013-04-14 19:22:00,
2013-04-14 12:32:00,47.0,39.0,29.94,South,186,2.0,-999.0,73,-99.99,,,-99.99,,2013-04-14 19:32:00,
2013-04-14 12:42:00,47.0,39.0,29.94,South,186,2.0,-999.0,73,-99.99,,,-99.99,,2013-04-14 19:42:00,
2013-04-14 12:52:00,48.0,39.0,29.93,SE,139,3.0,-999.0,70,-99.99,,,-99.99,,2013-04-14 19:52:00,
2013-04-14 13:02:00,49.0,38.0,29.93,SSE,150,4.0,-999.0,66,-99.99,,,-99.99,,2013-04-14 20:02:00,
2013-04-14 13:11:00,49.0,38.0,29.93,SSE,150,4.0,-999.0,66,-99.99,,,-99.99,,2013-04-14 20:11:00,
2013-04-14 13:22:00,50.0,39.0,29.93,ESE,117,1.0,-999.0,65,-99.99,,,-99.99,,2013-04-14 20:22:00,
2013-04-14 13:32:00,50.0,38.0,29.92,SSE,164,5.0,-999.0,62,-99.99,,,-99.99,,2013-04-14 20:32:00,
2013-04-14 13:42:00,50.0,38.0,29.92,SSE,164,5.0,-999.0,62,-99.99,,,-99.99,,2013-04-14 20:42:00,
2013-04-14 13:52:00,51.0,38.0,29.92,SE,125,3.0,-999.0,62,-99.99,,,-99.99,,2013-04-14 20:52:00,
2013-04-14 14:02:00,50.0,38.0,29.91,East,82,2.0,-999.0,63,-99.99,,,-99.99,,2013-04-14 21:02:00,
2013-04-14 14:12:00,50.0,38.0,29.91,East,82,2.0,-999.0,63,-99.99,,,-99.99,,2013-04-14 21:12:00,
2013-04-14 14:22:00,50.0,37.0,29.91,South,186,4.0,-999.0,60,-99.99,,,-99.99,,2013-04-14 21:22:00,
2013-04-14 14:32:00,49.0,35.0,29.91,SSE,152,1.0,-999.0,58,-99.99,,,-99.99,,2013-04-14 21:32:00,
2013-04-14 14:42:00,49.0,35.0,29.91,SSE,152,1.0,-999.0,58,-99.99,,,-99.99,,2013-04-14 21:42:00,
2013-04-14 14:52:00,50.0,35.0,29.91,SSE,150,1.0,-999.0,57,-99.99,,,-99.99,,2013-04-14 21:52:00,
2013-04-14 15:02:00,50.0,38.0,29.91,ENE,59,3.0,-999.0,63,-99.99,,,-99.99,,2013-04-14 22:02:00,
2013-04-14 15:12:00,50.0,38.0,29.91,ENE,59,3.0,-999.0,63,-99.99,,,-99.99,,2013-04-14 22:12:00,
2013-04-14 15:22:00,48.0,39.0,29.91,NNE,13,4.0,-999.0,70,-99.99,,,-99.99,,2013-04-14 22:22:00,
2013-04-14 15:32:00,48.0,38.0,29.90,NNE,19,5.0,-999.0,69,-99.99,,,-99.99,,2013-04-14 22:32:00,
2013-04-14 15:43:00,48.0,38.0,29.90,NNE,19,5.0,-999.0,69,-99.99,,,-99.99,,2013-04-14 22:43:00,
2013-04-14 15:52:00,48.0,38.0,29.90,North,357,1.0,-999.0,68,-99.99,,,-99.99,,2013-04-14 22:52:00,
2013-04-14 16:02:00,48.0,38.0,29.90,NNW,346,2.0,-999.0,67,-99.99,,,-99.99,,2013-04-14 23:02:00,
2013-04-14 16:12:00,48.0,38.0,29.90,NNW,346,2.0,-999.0,67,-99.99,,,-99.99,,2013-04-14 23:12:00,
2013-04-14 16:32:00,49.0,37.0,29.89,North,3,1.0,-999.0,64,-99.99,,,-99.99,,2013-04-14 23:32:00,
2013-04-14 16:42:00,49.0,37.0,29.89,North,3,1.0,-999.0,64,-99.99,,,-99.99,,2013-04-14 23:42:00,
2013-04-14 16:52:00,48.0,37.0,29.89,NNW,340,1.0,-999.0,65,-99.99,,,-99.99,,2013-04-14 23:52:00,
2013-04-14 17:01:00,49.0,38.0,29.88,NW,308,0.0,-999.0,65,-99.99,,,-99.99,,2013-04-15 00:01:00,
2013-04-14 17:12:00,49.0,38.0,29.88,NW,308,0.0,-999.0,65,-99.99,,,-99.99,,2013-04-15 00:12:00,
2013-04-14 17:22:00,49.0,36.0,29.88,North,357,1.0,-999.0,61,-99.99,,,-99.99,,2013-04-15 00:22:00,
2013-04-14 17:32:00,49.0,37.0,29.89,NNW,331,1.0,-999.0,63,-99.99,,,-99.99,,2013-04-15 00:32:00,
2013-04-14 17:42:00,49.0,37.0,29.89,NNW,331,1.0,-999.0,63,-99.99,,,-99.99,,2013-04-15 00:42:00,
2013-04-14 17:52:00,49.0,38.0,29.89,WNW,299,1.0,-999.0,66,-99.99,,,-99.99,,2013-04-15 00:52:00,
2013-04-14 18:02:00,49.0,41.0,29.89,WSW,252,4.0,-999.0,73,-99.99,,,-99.99,,2013-04-15 01:02:00,
2013-04-14 18:12:00,49.0,41.0,29.89,WSW,252,4.0,-999.0,73,-99.99,,,-99.99,,2013-04-15 01:12:00,
2013-04-14 18:22:00,47.0,40.0,29.88,SW,232,5.0,-999.0,77,-99.99,,,-99.99,,2013-04-15 01:22:00,
2013-04-14 18:32:00,47.0,40.0,29.88,WSW,242,6.0,-999.0,77,-99.99,,,-99.99,,2013-04-15 01:32:00,
2013-04-14 18:42:00,47.0,40.0,29.88,WSW,242,6.0,-999.0,77,-99.99,,,-99.99,,2013-04-15 01:42:00,
2013-04-14 18:52:00,46.0,40.0,29.89,WSW,248,7.0,-999.0,79,-99.99,,,-99.99,,2013-04-15 01:52:00,
2013-04-14 19:02:00,46.0,41.0,29.89,SW,236,1.0,-999.0,81,-99.99,,,-99.99,,2013-04-15 02:02:00,
2013-04-14 19:11:00,46.0,41.0,29.89,SW,236,1.0,-999.0,81,-99.99,,,-99.99,,2013-04-15 02:11:00,
2013-04-14 19:22:00,44.0,39.0,29.89,WSW,252,1.0,-999.0,84,-99.99,,,-99.99,,2013-04-15 02:22:00,
2013-04-14 19:31:00,44.0,40.0,29.89,WSW,244,3.0,-999.0,85,-99.99,,,-99.99,,2013-04-15 02:31:00,
2013-04-14 19:42:00,44.0,40.0,29.89,WSW,244,3.0,-999.0,85,-99.99,,,-99.99,,2013-04-15 02:42:00,
2013-04-14 19:52:00,43.0,39.0,29.89,WSW,241,4.0,-999.0,87,-99.99,,,-99.99,,2013-04-15 02:52:00,
2013-04-14 20:02:00,42.0,38.0,29.89,WSW,241,0.0,-999.0,87,-99.99,,,-99.99,,2013-04-15 03:02:00,
2013-04-14 20:11:00,42.0,38.0,29.89,WSW,241,0.0,-999.0,87,-99.99,,,-99.99,,2013-04-15 03:11:00,
2013-04-14 20:22:00,42.0,38.0,29.89,WSW,241,0.0,-999.0,86,-99.99,,,-99.99,,2013-04-15 03:22:00,
2013-04-14 20:32:00,41.0,37.0,29.89,WSW,241,0.0,-999.0,85,-99.99,,,-99.99,,2013-04-15 03:32:00,
2013-04-14 20:42:00,41.0,37.0,29.89,WSW,241,0.0,-999.0,85,-99.99,,,-99.99,,2013-04-15 03:42:00,
2013-04-14 20:54:00,41.0,37.0,29.90,WSW,241,0.0,-999.0,85,-99.99,,,-99.99,,2013-04-15 03:54:00,
2013-04-14 21:02:00,41.0,37.0,29.90,WSW,242,2.0,-999.0,87,-99.99,,,-99.99,,2013-04-15 04:02:00,
2013-04-14 21:12:00,41.0,37.0,29.90,WSW,242,2.0,-999.0,87,-99.99,,,-99.99,,2013-04-15 04:12:00,
2013-04-14 21:22:00,40.0,37.0,29.90,WSW,242,1.0,-999.0,89,-99.99,,,-99.99,,2013-04-15 04:22:00,
2013-04-14 21:32:00,40.0,37.0,29.91,WSW,242,0.0,-999.0,89,-99.99,,,-99.99,,2013-04-15 04:32:00,
2013-04-14 21:42:00,40.0,37.0,29.91,WSW,242,0.0,-999.0,89,-99.99,,,-99.99,,2013-04-15 04:42:00,
2013-04-14 21:52:00,40.0,37.0,29.91,WSW,242,0.0,-999.0,89,-99.99,,,-99.99,,2013-04-15 04:52:00,
2013-04-14 22:02:00,39.0,36.0,29.91,WSW,242,1.0,-999.0,90,-99.99,,,-99.99,,2013-04-15 05:02:00,
2013-04-14 22:12:00,39.0,36.0,29.91,WSW,242,1.0,-999.0,90,-99.99,,,-99.99,,2013-04-15 05:12:00,
2013-04-14 22:22:00,39.0,36.0,29.91,WSW,242,1.0,-999.0,90,-99.99,,,-99.99,,2013-04-15 05:22:00,
2013-04-14 22:32:00,39.0,36.0,29.91,WSW,242,0.0,-999.0,90,-99.99,,,-99.99,,2013-04-15 05:32:00,
2013-04-14 22:42:00,39.0,36.0,29.91,WSW,242,0.0,-999.0,90,-99.99,,,-99.99,,2013-04-15 05:42:00,
2013-04-14 22:52:00,39.0,37.0,29.91,WSW,242,4.0,-999.0,91,-99.99,,,-99.99,,2013-04-15 05:52:00,
2013-04-14 23:01:00,39.0,37.0,29.91,SW,226,1.0,-999.0,92,-99.99,,,-99.99,,2013-04-15 06:01:00,
2013-04-14 23:12:00,39.0,37.0,29.91,SW,226,1.0,-999.0,92,-99.99,,,-99.99,,2013-04-15 06:12:00,
2013-04-14 23:22:00,39.0,37.0,29.91,WSW,238,5.0,-999.0,93,-99.99,,,-99.99,,2013-04-15 06:22:00,
2013-04-14 23:32:00,39.0,37.0,29.91,SW,228,3.0,-999.0,92,-99.99,,,-99.99,,2013-04-15 06:32:00,
2013-04-14 23:42:00,39.0,37.0,29.91,SW,228,3.0,-999.0,92,-99.99,,,-99.99,,2013-04-15 06:42:00,
2013-04-14 23:52:00,39.0,37.0,29.91,SW,226,4.0,-999.0,93,-99.99,,,-99.99,,2013-04-15 06:52:00,